createdAt,value
2017-12-28T00:02:11.632Z,3.90
2017-12-28T00:04:38.385Z,4.00
2017-12-28T00:07:05.832Z,4.10
2017-12-28T00:09:33.300Z,4.65
2017-12-28T00:12:00.779Z,4.10
2017-12-28T00:14:28.255Z,3.90
2017-12-28T00:16:55.714Z,4.30
2017-12-28T00:19:23.177Z,4.40
2017-12-28T00:21:50.624Z,4.28
2017-12-28T00:24:18.076Z,4.62
2017-12-28T00:26:45.566Z,4.80
2017-12-28T00:29:13.038Z,4.93
2017-12-28T00:31:40.484Z,5.00
2017-12-28T00:34:07.969Z,4.90
2017-12-28T00:36:35.445Z,5.18
2017-12-28T00:39:02.910Z,5.10
2017-12-28T00:41:30.383Z,5.30
2017-12-28T00:43:57.828Z,5.15
2017-12-28T00:46:25.299Z,4.00
2017-12-28T00:48:52.778Z,4.97
2017-12-28T00:51:20.227Z,4.78
2017-12-28T00:53:47.690Z,5.00
2017-12-28T00:56:15.144Z,5.85
2017-12-28T00:58:42.619Z,5.53
2017-12-28T01:01:10.151Z,6.05
2017-12-28T01:03:37.695Z,5.70
2017-12-28T01:06:05.164Z,5.47
2017-12-28T01:08:32.683Z,5.22
2017-12-28T01:11:00.523Z,5.82
2017-12-28T01:13:27.992Z,5.35
2017-12-28T01:15:55.436Z,5.95
2017-12-28T01:18:22.903Z,5.95
2017-12-28T01:20:50.379Z,5.80
2017-12-28T01:23:17.852Z,4.60
2017-12-28T01:25:45.326Z,4.90
2017-12-28T01:28:12.806Z,5.07
2017-12-28T01:30:40.256Z,5.50
2017-12-28T01:33:07.716Z,5.85
2017-12-28T01:35:35.186Z,5.50
2017-12-28T01:38:02.651Z,5.28
2017-12-28T01:40:30.131Z,6.30
2017-12-28T01:42:57.594Z,4.75
2017-12-28T01:45:25.048Z,4.80
2017-12-28T01:48:02.368Z,4.50
2017-12-28T01:50:29.835Z,4.75
2017-12-28T01:52:57.311Z,5.10
2017-12-28T01:55:24.787Z,4.90
2017-12-28T01:57:52.234Z,4.95
2017-12-28T02:00:19.704Z,4.80
2017-12-28T02:02:47.187Z,5.00
2017-12-28T02:05:14.635Z,5.43
2017-12-28T02:07:42.107Z,5.03
2017-12-28T02:10:09.590Z,4.80
2017-12-28T02:12:37.054Z,4.57
2017-12-28T02:15:05.345Z,4.55
2017-12-28T02:17:32.799Z,4.82
2017-12-28T02:20:00.243Z,4.82
2017-12-28T02:22:27.679Z,4.90
2017-12-28T02:24:55.152Z,5.18
2017-12-28T02:27:22.619Z,5.53
2017-12-28T02:29:50.069Z,5.60
2017-12-28T02:32:17.571Z,5.22
2017-12-28T02:34:45.039Z,4.50
2017-12-28T02:37:12.489Z,7.35
2017-12-28T02:39:39.956Z,5.35
2017-12-28T02:42:07.416Z,5.30
2017-12-28T02:44:34.886Z,5.18
2017-12-28T02:47:02.363Z,5.15
2017-12-28T02:49:29.811Z,5.15
2017-12-28T02:51:57.273Z,5.10
2017-12-28T02:54:24.751Z,5.20
2017-12-28T02:56:52.200Z,4.65
2017-12-28T02:59:19.644Z,4.97
2017-12-28T03:01:47.118Z,4.47
2017-12-28T03:04:14.582Z,4.50
2017-12-28T03:06:42.049Z,4.00
2017-12-28T03:09:09.504Z,4.30
2017-12-28T03:11:36.971Z,4.72
2017-12-28T03:14:04.437Z,4.60
2017-12-28T03:16:31.902Z,3.92
2017-12-28T03:18:59.352Z,3.95
2017-12-28T03:21:26.836Z,4.00
2017-12-28T03:23:54.305Z,3.90
2017-12-28T03:26:21.776Z,4.15
2017-12-28T03:28:49.253Z,3.58
2017-12-28T03:31:16.699Z,3.60
2017-12-28T03:33:44.177Z,3.50
2017-12-28T03:36:11.640Z,4.12
2017-12-28T03:38:39.097Z,3.90
2017-12-28T03:41:06.576Z,4.40
2017-12-28T03:43:34.045Z,4.30
2017-12-28T03:46:01.511Z,3.78
2017-12-28T03:48:28.975Z,4.40
2017-12-28T03:50:56.455Z,4.18
2017-12-28T03:53:23.919Z,3.87
2017-12-28T03:55:51.364Z,3.78
2017-12-28T03:58:18.846Z,4.10
2017-12-28T04:00:46.319Z,3.67
2017-12-28T04:03:13.788Z,3.37
2017-12-28T04:05:41.271Z,3.55
2017-12-28T04:08:08.720Z,3.83
2017-12-28T04:10:36.190Z,3.42
2017-12-28T04:13:03.675Z,4.10
2017-12-28T04:15:31.130Z,3.67
2017-12-28T04:17:58.608Z,3.62
2017-12-28T04:20:26.093Z,4.20
2017-12-28T04:22:53.547Z,3.60
2017-12-28T04:25:20.991Z,3.80
2017-12-28T04:27:48.469Z,3.20
2017-12-28T04:30:15.939Z,3.30
2017-12-28T04:32:43.402Z,4.10
2017-12-28T04:35:10.882Z,3.70
2017-12-28T04:37:38.344Z,4.15
2017-12-28T04:40:05.796Z,4.85
2017-12-28T04:42:33.274Z,4.00
2017-12-28T04:45:00.735Z,4.35
2017-12-28T04:47:28.193Z,4.75
2017-12-28T04:49:55.688Z,5.00
2017-12-28T04:52:23.153Z,4.45
2017-12-28T04:54:50.618Z,4.18
2017-12-28T04:57:18.111Z,4.62
2017-12-28T04:59:45.583Z,3.95
2017-12-28T05:02:13.048Z,4.10
2017-12-28T05:04:40.520Z,4.82
2017-12-28T05:07:07.983Z,4.07
2017-12-28T05:09:35.419Z,4.57
2017-12-28T05:12:02.897Z,4.05
2017-12-28T05:14:30.339Z,4.37
2017-12-28T05:16:57.807Z,4.22
2017-12-28T05:19:25.287Z,4.22
2017-12-28T05:21:52.736Z,4.18
2017-12-28T05:24:20.190Z,4.30
2017-12-28T05:26:47.653Z,4.25
2017-12-28T05:29:15.117Z,4.90
2017-12-28T05:31:42.556Z,4.97
2017-12-28T05:34:10.026Z,5.40
2017-12-28T05:36:37.487Z,5.53
2017-12-28T05:39:04.930Z,6.68
2017-12-28T05:41:32.435Z,5.47
2017-12-28T05:43:59.888Z,5.80
2017-12-28T05:46:27.341Z,5.75
2017-12-28T05:48:54.823Z,5.15
2017-12-28T05:51:22.291Z,5.95
2017-12-28T05:53:49.761Z,5.55
2017-12-28T05:56:17.229Z,5.25
2017-12-28T05:58:44.690Z,6.22
2017-12-28T06:01:12.136Z,6.03
2017-12-28T06:03:39.615Z,5.62
2017-12-28T06:06:07.083Z,7.05
2017-12-28T06:08:34.550Z,6.40
2017-12-28T06:11:02.031Z,7.07
2017-12-28T06:13:29.480Z,7.30
2017-12-28T06:15:56.932Z,7.25
2017-12-28T06:18:24.414Z,7.30
2017-12-28T06:20:51.872Z,7.87
2017-12-28T06:23:19.343Z,6.90
2017-12-28T06:25:46.801Z,6.70
2017-12-28T06:28:14.268Z,6.70
2017-12-28T06:30:41.727Z,7.82
2017-12-28T06:33:09.211Z,6.85
2017-12-28T06:35:36.667Z,6.45
2017-12-28T06:38:04.126Z,5.60
2017-12-28T06:40:31.590Z,6.62
2017-12-28T06:42:59.036Z,6.47
2017-12-28T06:45:26.503Z,6.70
2017-12-28T06:47:53.995Z,6.30
2017-12-28T06:50:21.440Z,5.90
2017-12-28T06:52:48.887Z,5.90
2017-12-28T06:55:16.368Z,5.60
2017-12-28T06:57:43.812Z,5.35
2017-12-28T07:00:11.252Z,4.95
2017-12-28T07:02:38.711Z,6.28
2017-12-28T07:05:06.152Z,5.30
2017-12-28T07:07:33.595Z,5.03
2017-12-28T07:10:01.080Z,6.03
2017-12-28T07:12:28.523Z,6.03
2017-12-28T07:14:55.991Z,5.90
2017-12-28T07:17:23.462Z,5.72
2017-12-28T07:19:50.906Z,6.00
2017-12-28T07:22:18.351Z,5.60
2017-12-28T07:24:45.812Z,6.60
2017-12-28T07:27:13.276Z,5.95
2017-12-28T07:29:40.725Z,5.82
2017-12-28T07:32:08.188Z,6.18
2017-12-28T07:34:35.628Z,6.35
2017-12-28T07:37:03.077Z,7.10
2017-12-28T07:39:30.555Z,6.50
2017-12-28T07:41:58.004Z,6.78
2017-12-28T07:44:25.460Z,7.00
2017-12-28T07:46:52.937Z,7.47
2017-12-28T07:49:20.408Z,6.80
2017-12-28T07:51:47.861Z,7.07
2017-12-28T07:54:15.716Z,7.28
2017-12-28T07:56:43.174Z,7.10
2017-12-28T07:59:10.638Z,8.50
2017-12-28T08:01:38.124Z,7.72
2017-12-28T08:04:05.577Z,8.73
2017-12-28T08:06:33.055Z,8.10
2017-12-28T08:09:00.548Z,8.18
2017-12-28T08:11:28.010Z,7.20
2017-12-28T08:13:55.482Z,10.60
2017-12-28T08:16:22.940Z,7.55
2017-12-28T08:18:50.397Z,8.32
2017-12-28T08:21:17.849Z,7.22
2017-12-28T08:23:45.332Z,7.53
2017-12-28T08:26:12.803Z,7.82
2017-12-28T08:28:40.267Z,7.53
2017-12-28T08:31:07.770Z,7.35
2017-12-28T08:33:35.197Z,7.90
2017-12-28T08:36:02.655Z,9.13
2017-12-28T08:38:30.124Z,7.85
2017-12-28T08:40:57.601Z,8.90
2017-12-28T08:43:25.079Z,8.98
2017-12-28T08:45:52.562Z,8.65
2017-12-28T08:48:20.036Z,8.48
2017-12-28T08:50:47.530Z,8.00
2017-12-28T08:53:15.020Z,8.27
2017-12-28T08:55:42.488Z,8.20
2017-12-28T08:58:09.959Z,7.93
2017-12-28T09:00:37.428Z,8.20
2017-12-28T09:03:04.885Z,9.40
2017-12-28T09:05:32.377Z,7.78
2017-12-28T09:07:59.861Z,8.95
2017-12-28T09:10:27.313Z,8.43
2017-12-28T09:12:54.764Z,7.57
2017-12-28T09:15:22.251Z,9.45
2017-12-28T09:17:49.725Z,8.70
2017-12-28T09:20:17.193Z,8.88
2017-12-28T09:22:44.667Z,9.00
2017-12-28T09:25:12.139Z,8.65
2017-12-28T09:27:39.613Z,8.90
2017-12-28T09:30:07.096Z,8.80
2017-12-28T09:32:34.552Z,8.40
2017-12-28T09:35:02.044Z,8.27
2017-12-28T09:37:29.521Z,8.40
2017-12-28T09:39:56.981Z,8.50
2017-12-28T09:42:24.471Z,9.15
2017-12-28T09:44:51.943Z,9.55
2017-12-28T09:47:19.423Z,10.55
2017-12-28T09:49:46.902Z,9.70
2017-12-28T09:52:14.360Z,10.05
2017-12-28T09:54:41.812Z,9.82
2017-12-28T09:57:09.280Z,10.48
2017-12-28T09:59:36.729Z,9.10
2017-12-28T10:02:04.204Z,10.52
2017-12-28T10:04:31.672Z,10.13
2017-12-28T10:06:59.147Z,10.68
2017-12-28T10:09:26.620Z,10.23
2017-12-28T10:11:54.111Z,8.50
2017-12-28T10:14:21.591Z,10.75
2017-12-28T10:16:49.042Z,9.73
2017-12-28T10:19:16.522Z,10.55
2017-12-28T10:21:43.998Z,9.75
2017-12-28T10:24:11.459Z,10.32
2017-12-28T10:26:38.929Z,9.68
2017-12-28T10:29:06.398Z,10.52
2017-12-28T10:31:33.864Z,9.95
2017-12-28T10:34:01.328Z,10.57
2017-12-28T10:36:28.794Z,9.60
2017-12-28T10:38:56.271Z,11.20
2017-12-28T10:41:23.752Z,9.45
2017-12-28T10:43:51.207Z,9.98
2017-12-28T10:46:18.675Z,8.98
2017-12-28T10:48:46.145Z,8.75
2017-12-28T10:51:13.614Z,8.88
2017-12-28T10:53:41.083Z,9.02
2017-12-28T10:56:08.555Z,7.75
2017-12-28T10:58:36.022Z,9.10
2017-12-28T11:01:03.472Z,8.98
2017-12-28T11:03:30.954Z,8.50
2017-12-28T11:05:58.410Z,7.25
2017-12-28T11:08:25.878Z,7.65
2017-12-28T11:10:53.394Z,8.00
2017-12-28T11:13:20.872Z,8.90
2017-12-28T11:15:48.324Z,7.97
2017-12-28T11:18:15.795Z,7.45
2017-12-28T11:20:43.252Z,8.48
2017-12-28T11:23:10.718Z,7.70
2017-12-28T11:25:38.199Z,8.90
2017-12-28T11:28:05.672Z,9.05
2017-12-28T11:30:33.134Z,8.45
2017-12-28T11:33:00.587Z,7.80
2017-12-28T11:35:28.055Z,8.90
2017-12-28T11:37:55.539Z,9.15
2017-12-28T11:40:23.010Z,8.20
2017-12-28T11:42:50.471Z,8.88
2017-12-28T11:45:17.937Z,9.02
2017-12-28T11:47:45.394Z,8.27
2017-12-28T11:50:12.849Z,8.80
2017-12-28T11:52:43.079Z,8.70
2017-12-28T12:08:34.512Z,7.75
2017-12-28T12:11:01.995Z,7.90
2017-12-28T12:13:29.440Z,7.45
2017-12-28T12:15:56.898Z,7.68
2017-12-28T12:18:24.354Z,6.35
2017-12-28T12:20:51.819Z,7.65
2017-12-28T12:23:19.287Z,7.25
2017-12-28T12:25:46.758Z,7.90
2017-12-28T12:28:14.238Z,8.05
2017-12-28T12:30:41.702Z,6.82
2017-12-28T12:33:09.172Z,7.80
2017-12-28T12:35:36.632Z,9.30
2017-12-28T12:38:04.094Z,8.02
2017-12-28T12:40:31.532Z,7.90
2017-12-28T12:42:58.997Z,8.02
2017-12-28T12:45:26.443Z,7.22
2017-12-28T12:47:53.894Z,7.28
2017-12-28T12:50:21.352Z,7.90
2017-12-28T12:52:48.815Z,8.07
2017-12-28T12:55:16.268Z,6.20
2017-12-28T12:57:43.720Z,7.57
2017-12-28T13:00:11.177Z,7.00
2017-12-28T13:02:38.655Z,6.60
2017-12-28T13:05:06.127Z,7.25
2017-12-28T13:07:33.534Z,6.20
2017-12-28T13:10:01.048Z,6.00
2017-12-28T13:12:28.502Z,6.20
2017-12-28T13:14:55.948Z,6.65
2017-12-28T13:17:23.398Z,6.60
2017-12-28T13:19:50.863Z,7.30
2017-12-28T13:22:18.308Z,6.72
2017-12-28T13:24:45.763Z,5.95
2017-12-28T13:27:13.204Z,6.20
2017-12-28T13:29:40.658Z,6.10
2017-12-28T13:32:08.107Z,5.45
2017-12-28T13:34:35.575Z,5.72
2017-12-28T13:37:03.038Z,6.55
2017-12-28T13:39:30.509Z,6.28
2017-12-28T13:41:57.959Z,5.78
2017-12-28T13:44:25.410Z,6.40
2017-12-28T13:46:52.865Z,5.95
2017-12-28T13:49:20.327Z,7.10
2017-12-28T13:51:47.791Z,5.97
2017-12-28T13:54:15.266Z,6.20
2017-12-28T13:56:42.708Z,6.47
2017-12-28T13:59:10.170Z,5.87
2017-12-28T14:01:37.616Z,6.05
2017-12-28T14:04:05.063Z,6.97
2017-12-28T14:06:32.522Z,6.80
2017-12-28T14:08:59.995Z,6.00
2017-12-28T14:11:27.444Z,6.43
2017-12-28T14:13:54.919Z,6.37
2017-12-28T14:16:22.356Z,6.78
2017-12-28T14:18:49.816Z,7.28
2017-12-28T14:21:17.282Z,7.20
2017-12-28T14:23:44.758Z,7.97
2017-12-28T14:26:12.227Z,7.50
2017-12-28T14:28:39.686Z,7.62
2017-12-28T14:31:07.159Z,7.28
2017-12-28T14:33:34.595Z,8.05
2017-12-28T14:36:02.058Z,8.05
2017-12-28T14:38:29.545Z,8.73
2017-12-28T14:40:57.051Z,8.07
2017-12-28T14:43:24.495Z,8.80
2017-12-28T14:45:51.943Z,7.85
2017-12-28T14:48:19.412Z,8.70
2017-12-28T14:50:46.879Z,8.13
2017-12-28T14:53:14.335Z,8.15
2017-12-28T14:55:41.803Z,8.75
2017-12-28T14:58:09.249Z,9.40
2017-12-28T15:00:36.726Z,9.00
2017-12-28T15:03:04.184Z,10.07
2017-12-28T15:05:31.647Z,9.52
2017-12-28T15:07:59.107Z,9.32
2017-12-28T15:10:26.562Z,9.40
2017-12-28T15:12:54.004Z,9.50
2017-12-28T15:15:21.482Z,9.40
2017-12-28T15:17:48.932Z,10.07
2017-12-28T15:20:16.390Z,8.85
2017-12-28T15:22:43.869Z,9.93
2017-12-28T15:25:11.328Z,8.88
2017-12-28T15:27:38.795Z,9.50
2017-12-28T15:30:06.271Z,8.45
2017-12-28T15:32:33.712Z,8.68
2017-12-28T15:35:01.192Z,9.27
2017-12-28T15:37:28.636Z,8.80
2017-12-28T15:39:56.099Z,8.77
2017-12-28T15:42:23.564Z,9.13
2017-12-28T15:44:51.008Z,8.68
2017-12-28T15:47:18.467Z,9.55
2017-12-28T15:49:45.928Z,9.98
2017-12-28T15:52:13.407Z,10.43
2017-12-28T15:54:40.854Z,10.05
2017-12-28T15:57:08.312Z,10.82
2017-12-28T15:59:35.779Z,9.52
2017-12-28T16:02:03.248Z,8.70
2017-12-28T16:04:30.716Z,10.18
2017-12-28T16:06:58.196Z,11.27
2017-12-28T16:09:25.679Z,10.43
2017-12-28T16:11:53.530Z,9.65
2017-12-28T16:14:20.993Z,10.95
2017-12-28T16:16:48.497Z,10.80
2017-12-28T16:19:15.958Z,9.85
2017-12-28T16:21:43.401Z,12.02
2017-12-28T16:24:10.864Z,9.90
2017-12-28T16:26:38.349Z,10.25
2017-12-28T16:29:05.804Z,10.77
2017-12-28T16:31:33.230Z,10.48
2017-12-28T16:34:00.726Z,10.88
2017-12-28T16:36:28.196Z,10.82
2017-12-28T16:38:55.656Z,9.80
2017-12-28T16:41:23.112Z,11.43
2017-12-28T16:43:50.567Z,10.65
2017-12-28T16:46:18.043Z,9.75
2017-12-28T16:48:45.502Z,9.75
2017-12-28T16:51:12.955Z,9.77
2017-12-28T16:53:40.437Z,9.63
2017-12-28T16:56:07.902Z,8.48
2017-12-28T16:58:35.344Z,8.75
2017-12-28T17:01:03.823Z,10.23
2017-12-28T17:03:31.283Z,9.18
2017-12-28T17:05:58.745Z,8.85
2017-12-28T17:08:26.200Z,9.38
2017-12-28T17:10:53.671Z,9.35
2017-12-28T17:13:22.134Z,10.00
2017-12-28T17:15:49.621Z,9.30
2017-12-28T17:18:17.075Z,9.10
2017-12-28T17:20:44.528Z,9.18
2017-12-28T17:23:11.986Z,8.20
2017-12-28T17:25:39.443Z,8.80
2017-12-28T17:28:06.928Z,8.25
2017-12-28T17:30:34.376Z,9.07
2017-12-28T17:33:01.832Z,8.30
2017-12-28T17:35:29.276Z,7.80
2017-12-28T17:37:57.906Z,7.82
2017-12-28T17:40:25.411Z,8.20
2017-12-28T17:42:52.886Z,9.70
2017-12-28T17:45:20.358Z,9.30
2017-12-28T17:47:47.830Z,8.85
2017-12-28T17:50:15.301Z,10.18
2017-12-28T17:52:42.766Z,9.05
2017-12-28T17:55:10.239Z,8.40
2017-12-28T17:57:37.698Z,8.20
2017-12-28T18:00:05.166Z,8.75
2017-12-28T18:02:32.625Z,8.85
2017-12-28T18:05:00.076Z,10.43
2017-12-28T18:07:27.528Z,9.88
2017-12-28T18:09:55.016Z,9.88
2017-12-28T18:12:22.491Z,10.93
2017-12-28T18:14:49.936Z,9.98
2017-12-28T18:17:17.396Z,10.85
2017-12-28T18:19:44.844Z,9.88
2017-12-28T18:22:12.376Z,10.40
2017-12-28T18:24:39.844Z,11.65
2017-12-28T18:27:07.327Z,9.27
2017-12-28T18:29:34.785Z,9.95
2017-12-28T18:32:02.279Z,10.05
2017-12-28T18:34:29.735Z,10.73
2017-12-28T18:36:57.234Z,10.35
2017-12-28T18:39:24.728Z,10.77
2017-12-28T18:41:52.234Z,11.63
2017-12-28T18:44:19.747Z,11.00
2017-12-28T18:46:47.233Z,10.18
2017-12-28T18:49:14.702Z,10.60
2017-12-28T18:51:42.173Z,10.63
2017-12-28T18:54:09.693Z,10.90
2017-12-28T18:56:37.167Z,11.35
2017-12-28T18:59:04.652Z,10.55
2017-12-28T19:01:32.156Z,11.63
2017-12-28T19:03:59.629Z,10.43
2017-12-28T19:06:27.113Z,11.02
2017-12-28T19:08:54.605Z,9.75
2017-12-28T19:11:22.056Z,10.10
2017-12-28T19:13:49.524Z,10.40
2017-12-28T19:16:16.969Z,9.65
2017-12-28T19:18:44.461Z,10.20
2017-12-28T19:21:11.928Z,11.00
2017-12-28T19:23:39.376Z,10.13
2017-12-28T19:26:06.838Z,9.75
2017-12-28T19:28:34.313Z,10.75
2017-12-28T19:31:01.788Z,10.73
2017-12-28T19:33:29.277Z,10.30
2017-12-28T19:35:56.763Z,10.93
2017-12-28T19:38:24.220Z,10.38
2017-12-28T19:40:51.689Z,10.35
2017-12-28T19:43:19.153Z,10.40
2017-12-28T19:45:46.626Z,9.85
2017-12-28T19:48:14.065Z,9.63
2017-12-28T19:50:41.551Z,11.82
2017-12-28T19:53:08.996Z,10.95
2017-12-28T19:55:36.457Z,10.63
2017-12-28T19:58:03.943Z,10.25
2017-12-28T20:00:31.404Z,10.10
2017-12-28T20:02:58.874Z,10.25
2017-12-28T20:05:26.341Z,10.23
2017-12-28T20:07:53.803Z,9.80
2017-12-28T20:10:21.256Z,8.63
2017-12-28T20:12:48.736Z,9.35
2017-12-28T20:15:16.203Z,9.25
2017-12-28T20:17:43.686Z,9.27
2017-12-28T20:20:11.244Z,8.80
2017-12-28T20:22:39.422Z,8.27
2017-12-28T20:25:06.981Z,9.13
2017-12-28T20:27:34.542Z,7.80
2017-12-28T20:30:02.072Z,8.70
2017-12-28T20:32:29.670Z,8.77
2017-12-28T20:34:57.218Z,9.82
2017-12-28T20:37:24.778Z,9.20
2017-12-28T20:39:52.257Z,8.32
2017-12-28T20:42:20.658Z,10.18
2017-12-28T20:44:48.105Z,9.10
2017-12-28T20:47:15.588Z,8.77
2017-12-28T20:49:43.056Z,9.10
2017-12-28T20:52:10.506Z,9.15
2017-12-28T20:54:37.979Z,9.50
2017-12-28T20:57:05.542Z,9.50
2017-12-28T20:59:33.019Z,10.23
2017-12-28T21:02:00.483Z,10.52
2017-12-28T21:04:27.946Z,9.88
2017-12-28T21:06:55.399Z,9.45
2017-12-28T21:09:22.861Z,10.15
2017-12-28T21:11:50.328Z,9.85
2017-12-28T21:14:17.776Z,8.70
2017-12-28T21:16:45.250Z,9.18
2017-12-28T21:19:12.711Z,8.63
2017-12-28T21:21:40.156Z,9.57
2017-12-28T21:24:07.639Z,9.68
2017-12-28T21:26:35.099Z,8.85
2017-12-28T21:29:02.563Z,10.27
2017-12-28T21:31:30.050Z,11.27
2017-12-28T21:33:57.520Z,8.95
2017-12-28T21:36:24.973Z,9.13
2017-12-28T21:38:52.436Z,9.73
2017-12-28T21:41:19.892Z,8.63
2017-12-28T21:43:47.343Z,9.10
2017-12-28T21:46:14.876Z,8.23
2017-12-28T21:48:42.329Z,9.65
2017-12-28T21:51:09.805Z,9.82
2017-12-28T21:53:37.268Z,8.82
2017-12-28T21:56:04.754Z,9.65
2017-12-28T21:58:32.214Z,9.70
2017-12-28T22:00:59.765Z,8.68
2017-12-28T22:03:27.234Z,8.88
2017-12-28T22:05:54.763Z,9.20
2017-12-28T22:08:22.265Z,9.30
2017-12-28T22:10:49.747Z,9.57
2017-12-28T22:13:17.211Z,9.70
2017-12-28T22:15:44.677Z,9.52
2017-12-28T22:18:12.155Z,9.60
2017-12-28T22:20:39.623Z,10.77
2017-12-28T22:23:07.114Z,10.20
2017-12-28T22:25:34.596Z,8.82
2017-12-28T22:28:02.054Z,9.60
2017-12-28T22:30:29.543Z,9.82
2017-12-28T22:32:57.002Z,9.38
2017-12-28T22:35:24.717Z,10.00
2017-12-28T22:37:52.186Z,9.18
2017-12-28T22:40:19.644Z,8.90
2017-12-28T22:42:47.127Z,9.20
2017-12-28T22:45:14.607Z,9.13
2017-12-28T22:47:42.072Z,8.90
2017-12-28T22:50:09.559Z,7.78
2017-12-28T22:52:37.044Z,8.52
2017-12-28T22:55:04.519Z,8.90
2017-12-28T22:57:31.972Z,7.90
2017-12-28T22:59:59.455Z,8.95
2017-12-28T23:02:26.914Z,7.93
2017-12-28T23:04:54.390Z,7.87
2017-12-28T23:07:21.852Z,7.65
2017-12-28T23:09:49.292Z,8.20
2017-12-28T23:12:16.736Z,7.78
2017-12-28T23:14:44.211Z,7.75
2017-12-28T23:17:11.668Z,7.47
2017-12-28T23:19:39.139Z,7.78
2017-12-28T23:22:06.630Z,6.95
2017-12-28T23:24:34.072Z,7.20
2017-12-28T23:27:01.511Z,7.55
2017-12-28T23:29:28.990Z,7.70
2017-12-28T23:31:56.455Z,8.20
2017-12-28T23:34:23.918Z,7.50
2017-12-28T23:36:51.398Z,6.85
2017-12-28T23:39:18.841Z,6.85
2017-12-28T23:41:46.307Z,7.82
2017-12-28T23:44:13.770Z,7.45
2017-12-28T23:46:41.219Z,7.53
2017-12-28T23:49:08.690Z,7.18
2017-12-28T23:51:36.167Z,7.82
2017-12-28T23:54:03.630Z,7.70
2017-12-28T23:56:31.080Z,7.75
2017-12-28T23:58:58.539Z,7.45
